createdAt,value
2018-09-03T00:02:20.967Z,97.50
2018-09-03T00:04:49.151Z,97.40
2018-09-03T00:07:17.323Z,97.90
2018-09-03T00:09:45.502Z,97.90
2018-09-03T00:12:13.669Z,97.90
2018-09-03T00:14:41.858Z,98.00
2018-09-03T00:17:10.235Z,98.30
2018-09-03T00:19:38.626Z,98.20
2018-09-03T00:22:07.310Z,98.20
2018-09-03T00:24:35.597Z,98.10
2018-09-03T00:27:03.778Z,98.30
2018-09-03T00:29:31.989Z,98.10
2018-09-03T00:32:05.574Z,98.30
2018-09-03T00:34:39.082Z,98.40
2018-09-03T00:37:12.614Z,99.10
2018-09-03T00:39:46.018Z,98.40
2018-09-03T00:42:19.810Z,98.70
2018-09-03T00:44:53.498Z,98.40
2018-09-03T00:47:21.666Z,98.50
2018-09-03T00:49:49.951Z,98.70
2018-09-03T00:52:18.114Z,98.80
2018-09-03T00:54:46.306Z,99.10
2018-09-03T00:57:14.493Z,99.00
2018-09-03T00:59:42.675Z,98.30
2018-09-03T01:02:10.850Z,98.60
2018-09-03T01:04:39.031Z,98.70
2018-09-03T01:07:07.312Z,98.90
2018-09-03T01:09:35.536Z,99.10
2018-09-03T01:12:03.717Z,99.30
2018-09-03T01:14:32.031Z,99.10
2018-09-03T01:17:00.313Z,99.80
2018-09-03T01:19:28.515Z,99.40
2018-09-03T01:21:56.691Z,99.20
2018-09-03T01:24:24.858Z,99.20
2018-09-03T01:26:53.041Z,99.30
2018-09-03T01:29:21.294Z,99.20
2018-09-03T01:31:49.468Z,99.50
2018-09-03T01:34:17.637Z,99.70
2018-09-03T01:36:45.874Z,99.60
2018-09-03T01:39:14.116Z,99.70
2018-09-03T01:41:42.296Z,99.30
2018-09-03T01:44:10.464Z,99.30
2018-09-03T01:46:38.662Z,99.30
2018-09-03T01:49:06.989Z,99.80
2018-09-03T01:51:35.166Z,99.70
2018-09-03T01:54:03.329Z,99.70
2018-09-03T01:56:31.538Z,99.80
2018-09-03T01:58:59.722Z,99.80
2018-09-03T02:01:27.921Z,99.90
2018-09-03T02:03:56.060Z,99.90
2018-09-03T02:06:24.190Z,99.90
2018-09-03T02:08:52.366Z,99.90
2018-09-03T02:11:20.506Z,99.90
2018-09-03T02:13:48.667Z,99.90
2018-09-03T02:16:16.815Z,99.90
2018-09-03T02:18:44.969Z,99.90
2018-09-03T02:21:13.135Z,99.90
2018-09-03T02:23:41.286Z,99.90
2018-09-03T02:26:09.454Z,99.90
2018-09-03T02:28:37.610Z,99.90
2018-09-03T02:31:05.747Z,99.90
2018-09-03T02:33:33.899Z,99.90
2018-09-03T02:36:03.101Z,99.90
2018-09-03T02:38:31.274Z,99.90
2018-09-03T02:40:59.414Z,99.90
2018-09-03T02:43:27.573Z,99.90
2018-09-03T02:45:55.719Z,99.90
2018-09-03T02:48:23.875Z,99.90
2018-09-03T02:50:52.026Z,99.90
2018-09-03T02:53:20.213Z,99.90
2018-09-03T02:55:48.454Z,99.90
2018-09-03T02:58:16.658Z,99.90
2018-09-03T03:00:44.833Z,99.90
2018-09-03T03:03:13.010Z,99.90
2018-09-03T03:05:41.196Z,99.90
2018-09-03T03:08:09.422Z,99.90
2018-09-03T03:10:37.596Z,99.90
2018-09-03T03:13:05.913Z,99.90
2018-09-03T03:15:34.130Z,99.90
2018-09-03T03:18:02.304Z,99.90
2018-09-03T03:20:30.482Z,99.90
2018-09-03T03:22:58.660Z,99.90
2018-09-03T03:25:26.846Z,99.90
2018-09-03T03:27:55.199Z,99.90
2018-09-03T03:30:23.374Z,99.90
2018-09-03T03:32:51.558Z,99.90
2018-09-03T03:35:19.743Z,99.90
2018-09-03T03:37:49.016Z,99.90
2018-09-03T03:40:18.178Z,99.90
2018-09-03T03:42:46.383Z,99.90
2018-09-03T03:45:14.561Z,99.90
2018-09-03T03:47:42.750Z,99.90
2018-09-03T03:50:11.027Z,99.90
2018-09-03T03:52:39.257Z,99.90
2018-09-03T03:55:07.786Z,99.90
2018-09-03T03:57:36.443Z,99.90
2018-09-03T04:00:04.638Z,99.90
2018-09-03T04:02:32.782Z,99.90
2018-09-03T04:05:00.928Z,99.90
2018-09-03T04:07:29.083Z,99.90
2018-09-03T04:09:57.301Z,99.90
2018-09-03T04:12:25.466Z,99.90
2018-09-03T04:14:53.610Z,99.90
2018-09-03T04:17:21.803Z,99.90
2018-09-03T04:19:56.271Z,99.90
2018-09-03T04:22:24.423Z,99.90
2018-09-03T04:24:52.581Z,99.90
2018-09-03T04:27:20.750Z,99.90
2018-09-03T04:29:48.906Z,99.90
2018-09-03T04:32:17.090Z,99.90
2018-09-03T04:34:45.238Z,99.90
2018-09-03T04:37:13.406Z,99.90
2018-09-03T04:39:41.615Z,99.90
2018-09-03T04:42:09.766Z,99.90
2018-09-03T04:44:37.909Z,99.90
2018-09-03T04:47:06.098Z,99.90
2018-09-03T04:49:35.894Z,99.90
2018-09-03T04:52:04.050Z,99.90
2018-09-03T04:54:32.215Z,99.90
2018-09-03T04:57:00.413Z,99.90
2018-09-03T04:59:28.614Z,99.90
2018-09-03T05:01:56.759Z,99.90
2018-09-03T05:04:24.927Z,99.90
2018-09-03T05:06:53.058Z,99.90
2018-09-03T05:09:21.233Z,99.90
2018-09-03T05:11:49.425Z,99.90
2018-09-03T05:14:17.566Z,99.90
2018-09-03T05:16:45.710Z,99.90
2018-09-03T05:19:13.912Z,99.90
2018-09-03T05:21:42.047Z,99.90
2018-09-03T05:24:10.197Z,99.90
2018-09-03T05:26:38.330Z,99.90
2018-09-03T05:29:06.516Z,99.90
2018-09-03T05:31:34.658Z,99.90
2018-09-03T05:34:02.806Z,99.90
2018-09-03T05:36:30.951Z,99.90
2018-09-03T05:38:59.094Z,99.90
2018-09-03T05:41:27.232Z,99.90
2018-09-03T05:43:55.446Z,99.90
2018-09-03T05:46:23.550Z,99.90
2018-09-03T05:48:51.741Z,99.90
2018-09-03T05:51:19.894Z,99.90
2018-09-03T05:53:48.088Z,99.90
2018-09-03T05:56:16.262Z,99.90
2018-09-03T05:58:44.477Z,99.90
2018-09-03T06:01:12.716Z,99.90
2018-09-03T06:03:40.882Z,99.90
2018-09-03T06:06:09.062Z,99.90
2018-09-03T06:08:37.243Z,99.90
2018-09-03T06:11:05.441Z,99.90
2018-09-03T06:13:33.610Z,99.90
2018-09-03T06:16:01.792Z,99.90
2018-09-03T06:18:29.957Z,99.90
2018-09-03T06:20:58.138Z,99.90
2018-09-03T06:23:26.309Z,99.90
2018-09-03T06:25:54.494Z,99.90
2018-09-03T06:28:22.669Z,99.90
2018-09-03T06:30:50.870Z,99.90
2018-09-03T06:33:19.056Z,99.90
2018-09-03T06:35:47.247Z,99.90
2018-09-03T06:38:15.414Z,99.90
2018-09-03T06:40:43.618Z,99.90
2018-09-03T06:43:11.771Z,99.90
2018-09-03T06:45:39.923Z,99.90
2018-09-03T06:48:08.110Z,99.90
2018-09-03T06:50:36.274Z,99.90
2018-09-03T06:53:04.454Z,99.90
2018-09-03T06:55:32.607Z,99.90
2018-09-03T06:58:00.754Z,99.90
2018-09-03T07:00:28.934Z,99.90
2018-09-03T07:02:57.095Z,99.90
2018-09-03T07:05:25.255Z,99.90
2018-09-03T07:07:53.410Z,99.90
2018-09-03T07:10:21.602Z,99.90
2018-09-03T07:12:49.870Z,99.90
2018-09-03T07:15:18.022Z,99.90
2018-09-03T07:17:46.182Z,99.90
2018-09-03T07:20:14.385Z,99.90
2018-09-03T07:22:42.610Z,99.90
2018-09-03T07:25:10.750Z,99.90
2018-09-03T07:27:39.131Z,99.90
2018-09-03T07:30:07.389Z,99.90
2018-09-03T07:32:35.547Z,99.90
2018-09-03T07:35:03.719Z,99.90
2018-09-03T07:37:31.838Z,99.90
2018-09-03T07:40:00.006Z,99.90
2018-09-03T07:42:28.153Z,99.90
2018-09-03T07:44:56.299Z,99.90
2018-09-03T07:47:24.462Z,99.90
2018-09-03T07:49:52.630Z,99.90
2018-09-03T07:52:20.773Z,99.90
2018-09-03T07:54:48.945Z,99.90
2018-09-03T07:57:17.125Z,99.90
2018-09-03T07:59:45.440Z,99.90
2018-09-03T08:02:13.612Z,99.90
2018-09-03T08:04:41.779Z,99.90
2018-09-03T08:07:09.967Z,99.90
2018-09-03T08:09:38.159Z,99.90
2018-09-03T08:12:06.930Z,99.90
2018-09-03T08:14:35.214Z,99.90
2018-09-03T08:17:03.386Z,99.90
2018-09-03T08:19:31.621Z,99.90
2018-09-03T08:22:00.372Z,99.90
2018-09-03T08:24:28.572Z,99.90
2018-09-03T08:26:56.738Z,99.90
2018-09-03T08:29:24.917Z,99.90
2018-09-03T08:31:53.097Z,99.90
2018-09-03T08:34:21.290Z,99.90
2018-09-03T08:36:49.451Z,99.90
2018-09-03T08:39:17.738Z,99.90
2018-09-03T08:41:45.970Z,99.90
2018-09-03T08:44:14.163Z,99.90
2018-09-03T08:46:42.366Z,99.90
2018-09-03T08:49:10.833Z,99.90
2018-09-03T08:51:39.015Z,99.90
2018-09-03T08:54:07.179Z,99.90
2018-09-03T08:56:35.337Z,99.90
2018-09-03T08:59:03.563Z,99.90
2018-09-03T09:01:31.740Z,99.90
2018-09-03T09:03:59.896Z,99.90
2018-09-03T09:06:28.102Z,99.90
2018-09-03T09:08:56.398Z,99.90
2018-09-03T09:11:24.618Z,99.90
2018-09-03T09:13:52.766Z,99.90
2018-09-03T09:16:21.041Z,99.90
2018-09-03T09:18:49.179Z,99.90
2018-09-03T09:21:17.416Z,99.90
2018-09-03T09:23:45.703Z,99.90
2018-09-03T09:26:14.014Z,99.90
2018-09-03T09:28:42.270Z,99.90
2018-09-03T09:31:10.446Z,99.90
2018-09-03T09:33:38.689Z,99.90
2018-09-03T09:36:06.890Z,99.90
2018-09-03T09:38:35.043Z,99.90
2018-09-03T09:41:03.312Z,99.90
2018-09-03T09:43:31.595Z,99.90
2018-09-03T09:45:59.734Z,99.90
2018-09-03T09:48:27.926Z,99.90
2018-09-03T09:50:56.090Z,99.90
2018-09-03T09:53:24.383Z,99.90
2018-09-03T09:55:52.593Z,99.90
2018-09-03T09:58:20.794Z,99.90
2018-09-03T10:00:54.384Z,99.90
2018-09-03T10:03:22.609Z,99.90
2018-09-03T10:05:50.860Z,99.90
2018-09-03T10:08:19.060Z,99.90
2018-09-03T10:10:47.254Z,99.90
2018-09-03T10:13:15.465Z,99.90
2018-09-03T10:15:43.691Z,99.90
2018-09-03T10:18:11.899Z,99.90
2018-09-03T10:20:40.160Z,99.90
2018-09-03T10:23:08.445Z,99.90
2018-09-03T10:25:36.762Z,99.90
2018-09-03T10:28:05.147Z,99.90
2018-09-03T10:30:33.345Z,99.90
2018-09-03T10:33:01.538Z,99.90
2018-09-03T10:35:29.791Z,99.90
2018-09-03T10:37:57.989Z,99.90
2018-09-03T10:40:26.190Z,99.90
2018-09-03T10:42:55.743Z,99.90
2018-09-03T10:45:24.140Z,99.90
2018-09-03T10:47:52.327Z,99.90
2018-09-03T10:50:20.506Z,99.90
2018-09-03T10:52:48.722Z,99.90
2018-09-03T10:55:16.900Z,99.90
2018-09-03T10:57:45.169Z,99.90
2018-09-03T11:00:13.913Z,99.90
2018-09-03T11:02:42.103Z,99.90
2018-09-03T11:05:10.589Z,99.90
2018-09-03T11:07:38.681Z,99.90
2018-09-03T11:10:06.895Z,99.90
2018-09-03T11:12:35.098Z,99.90
2018-09-03T11:15:03.322Z,99.90
2018-09-03T11:17:31.906Z,99.90
2018-09-03T11:20:02.011Z,99.90
2018-09-03T11:22:30.247Z,99.90
2018-09-03T11:24:59.103Z,99.90
2018-09-03T11:27:27.542Z,99.90
2018-09-03T11:29:55.750Z,99.90
2018-09-03T11:32:24.099Z,99.90
2018-09-03T11:34:52.375Z,99.90
2018-09-03T11:37:20.546Z,99.90
2018-09-03T11:39:48.732Z,99.90
2018-09-03T11:42:16.975Z,99.90
2018-09-03T11:44:45.166Z,99.90
2018-09-03T11:47:13.355Z,99.90
2018-09-03T11:49:41.554Z,99.90
2018-09-03T11:52:09.739Z,99.90
2018-09-03T11:54:38.124Z,99.90
2018-09-03T11:57:06.282Z,99.90
2018-09-03T11:59:34.475Z,99.90
2018-09-03T12:02:03.440Z,99.90
2018-09-03T12:04:31.699Z,99.90
2018-09-03T12:06:59.923Z,99.90
2018-09-03T12:09:28.138Z,99.90
2018-09-03T12:11:56.354Z,99.90
2018-09-03T12:14:30.910Z,99.90
2018-09-03T12:16:59.472Z,99.90
2018-09-03T12:19:27.686Z,99.90
2018-09-03T12:21:56.054Z,99.90
2018-09-03T12:24:24.298Z,99.90
2018-09-03T12:26:52.495Z,99.90
2018-09-03T12:29:20.834Z,99.90
2018-09-03T12:31:49.054Z,99.90
2018-09-03T12:34:17.246Z,99.90
2018-09-03T12:36:45.590Z,99.90
2018-09-03T12:39:13.767Z,99.90
2018-09-03T12:41:42.003Z,99.90
2018-09-03T12:44:10.258Z,99.90
2018-09-03T12:46:38.446Z,99.90
2018-09-03T12:49:06.634Z,99.90
2018-09-03T12:51:34.889Z,99.90
2018-09-03T12:54:03.106Z,99.90
2018-09-03T12:56:31.334Z,99.90
2018-09-03T12:58:59.519Z,99.90
2018-09-03T13:01:27.816Z,99.90
2018-09-03T13:03:55.986Z,99.90
2018-09-03T13:06:24.234Z,99.90
2018-09-03T13:08:52.562Z,99.90
2018-09-03T13:11:20.778Z,99.90
2018-09-03T13:13:49.012Z,99.90
2018-09-03T13:16:17.557Z,99.90
2018-09-03T13:18:45.769Z,99.90
2018-09-03T13:21:13.921Z,99.90
2018-09-03T13:23:42.343Z,99.90
2018-09-03T13:26:10.534Z,99.90
2018-09-03T13:28:38.757Z,99.90
2018-09-03T13:31:06.953Z,99.90
2018-09-03T13:33:35.122Z,99.90
2018-09-03T13:36:03.367Z,99.90
2018-09-03T13:38:31.634Z,99.90
2018-09-03T13:40:59.802Z,99.90
2018-09-03T13:43:28.018Z,99.90
2018-09-03T13:45:56.190Z,99.90
2018-09-03T13:48:24.433Z,99.90
2018-09-03T13:50:52.771Z,99.90
2018-09-03T13:53:20.931Z,99.90
2018-09-03T13:55:49.119Z,99.90
2018-09-03T13:58:17.331Z,99.90
2018-09-03T14:00:45.767Z,99.90
2018-09-03T14:03:14.308Z,99.90
2018-09-03T14:05:42.444Z,99.90
2018-09-03T14:08:10.690Z,99.90
2018-09-03T14:10:38.843Z,99.90
2018-09-03T14:13:07.122Z,99.90
2018-09-03T14:15:35.355Z,99.90
2018-09-03T14:18:03.505Z,99.90
2018-09-03T14:20:31.918Z,99.90
2018-09-03T14:23:00.106Z,99.90
2018-09-03T14:25:28.337Z,99.90
2018-09-03T14:27:56.509Z,99.90
2018-09-03T14:30:24.814Z,99.90
2018-09-03T14:32:52.961Z,99.90
2018-09-03T14:35:21.122Z,99.90
2018-09-03T14:37:49.387Z,99.90
2018-09-03T14:40:17.560Z,99.90
2018-09-03T14:42:46.252Z,99.90
2018-09-03T14:45:14.529Z,99.90
2018-09-03T14:47:42.737Z,99.90
2018-09-03T14:50:10.890Z,99.90
2018-09-03T14:52:39.102Z,99.90
2018-09-03T14:55:07.355Z,99.90
2018-09-03T14:57:35.534Z,99.90
2018-09-03T15:00:03.891Z,99.90
2018-09-03T15:02:32.107Z,99.90
2018-09-03T15:05:00.365Z,99.90
2018-09-03T15:07:28.532Z,99.90
2018-09-03T15:09:56.714Z,99.90
2018-09-03T15:12:24.990Z,99.90
2018-09-03T15:14:53.265Z,99.90
2018-09-03T15:17:21.470Z,99.90
2018-09-03T15:19:49.684Z,99.90
2018-09-03T15:22:18.044Z,99.90
2018-09-03T15:24:46.226Z,99.90
2018-09-03T15:27:14.474Z,99.90
2018-09-03T15:29:42.706Z,99.90
2018-09-03T15:32:10.918Z,99.90
2018-09-03T15:34:39.111Z,99.90
2018-09-03T15:37:07.294Z,99.90
2018-09-03T15:39:35.515Z,99.90
2018-09-03T15:42:03.938Z,99.90
2018-09-03T15:44:32.151Z,99.90
2018-09-03T15:47:00.442Z,99.90
2018-09-03T15:49:28.619Z,99.90
2018-09-03T15:51:56.823Z,99.90
2018-09-03T15:54:24.978Z,99.90
2018-09-03T15:56:53.183Z,99.90
2018-09-03T15:59:21.359Z,99.90
2018-09-03T16:01:49.535Z,99.90
2018-09-03T16:04:17.762Z,99.90
2018-09-03T16:06:45.974Z,99.90
2018-09-03T16:09:14.320Z,99.90
2018-09-03T16:11:42.434Z,99.90
2018-09-03T16:14:10.595Z,99.90
2018-09-03T16:16:38.775Z,99.90
2018-09-03T16:19:06.913Z,99.90
2018-09-03T16:21:35.130Z,99.90
2018-09-03T16:24:03.279Z,99.90
2018-09-03T16:26:31.465Z,99.90
2018-09-03T16:28:59.642Z,99.90
2018-09-03T16:31:27.855Z,99.90
2018-09-03T16:33:56.187Z,99.90
2018-09-03T16:36:24.341Z,99.90
2018-09-03T16:38:52.627Z,99.90
2018-09-03T16:41:20.699Z,99.90
2018-09-03T16:43:48.889Z,99.90
2018-09-03T16:46:17.130Z,99.90
2018-09-03T16:48:45.302Z,99.90
2018-09-03T16:51:13.538Z,99.90
2018-09-03T16:53:41.718Z,99.90
2018-09-03T16:56:09.890Z,99.90
2018-09-03T16:58:38.208Z,99.90
2018-09-03T17:01:06.440Z,99.90
2018-09-03T17:03:34.582Z,99.90
2018-09-03T17:06:02.755Z,99.90
2018-09-03T17:08:30.978Z,99.90
2018-09-03T17:10:59.150Z,99.90
2018-09-03T17:13:27.398Z,99.90
2018-09-03T17:15:55.618Z,99.90
2018-09-03T17:18:23.814Z,99.90
2018-09-03T17:20:51.990Z,99.90
2018-09-03T17:23:20.163Z,99.90
2018-09-03T17:25:48.335Z,99.90
2018-09-03T17:28:16.510Z,99.90
2018-09-03T17:30:44.686Z,99.90
2018-09-03T17:33:12.842Z,99.90
2018-09-03T17:35:41.019Z,99.90
2018-09-03T17:38:09.242Z,99.90
2018-09-03T17:40:37.400Z,99.90
2018-09-03T17:43:05.634Z,99.90
2018-09-03T17:45:33.790Z,99.90
2018-09-03T17:48:02.019Z,99.90
2018-09-03T17:50:30.170Z,99.90
2018-09-03T17:52:58.418Z,99.90
2018-09-03T17:55:26.594Z,99.90
2018-09-03T17:57:54.798Z,99.90
2018-09-03T18:00:22.998Z,99.90
2018-09-03T18:02:51.187Z,99.90
2018-09-03T18:05:19.398Z,99.90
2018-09-03T18:07:47.653Z,99.90
2018-09-03T18:10:15.844Z,99.90
2018-09-03T18:12:44.050Z,99.90
2018-09-03T18:15:12.234Z,99.90
2018-09-03T18:17:40.422Z,99.90
2018-09-03T18:20:08.846Z,99.90
2018-09-03T18:22:37.067Z,99.90
2018-09-03T18:25:05.311Z,99.90
2018-09-03T18:27:33.511Z,99.90
2018-09-03T18:30:01.751Z,99.90
2018-09-03T18:32:29.890Z,99.90
2018-09-03T18:34:58.094Z,99.90
2018-09-03T18:37:26.294Z,99.90
2018-09-03T18:39:54.466Z,99.90
2018-09-03T18:42:22.654Z,99.90
2018-09-03T18:44:50.947Z,99.90
2018-09-03T18:47:19.220Z,99.90
2018-09-03T18:49:47.430Z,99.90
2018-09-03T18:52:15.633Z,99.90
2018-09-03T18:54:43.869Z,99.90
2018-09-03T18:57:12.070Z,99.90
2018-09-03T18:59:40.286Z,99.90
2018-09-03T19:02:08.484Z,99.90
2018-09-03T19:04:36.703Z,99.90
2018-09-03T19:07:05.833Z,99.90
2018-09-03T19:09:34.047Z,99.90
2018-09-03T19:12:02.615Z,99.90
2018-09-03T19:14:30.822Z,99.90
2018-09-03T19:16:59.160Z,99.90
2018-09-03T19:19:27.499Z,99.90
2018-09-03T19:21:55.702Z,99.90
2018-09-03T19:24:23.910Z,99.90
2018-09-03T19:26:52.139Z,99.90
2018-09-03T19:29:20.374Z,99.90
2018-09-03T19:31:48.572Z,99.90
2018-09-03T19:34:16.750Z,99.90
2018-09-03T19:37:04.403Z,99.90
2018-09-03T19:39:33.409Z,99.90
2018-09-03T19:42:01.683Z,99.90
2018-09-03T19:44:30.069Z,99.90
2018-09-03T19:46:58.361Z,99.90
2018-09-03T19:49:26.627Z,99.90
2018-09-03T19:51:54.794Z,99.90
2018-09-03T19:54:23.086Z,99.90
2018-09-03T19:56:51.293Z,99.90
2018-09-03T19:59:19.575Z,99.90
2018-09-03T20:01:47.763Z,99.90
2018-09-03T20:04:15.987Z,99.90
2018-09-03T20:06:44.245Z,99.90
2018-09-03T20:09:12.481Z,99.90
2018-09-03T20:11:40.711Z,99.90
2018-09-03T20:14:08.928Z,99.90
2018-09-03T20:16:37.266Z,99.90
2018-09-03T20:19:05.586Z,99.90
2018-09-03T20:21:33.790Z,99.90
2018-09-03T20:24:02.055Z,99.90
2018-09-03T20:26:30.290Z,99.90
2018-09-03T20:28:58.524Z,99.90
2018-09-03T20:31:26.696Z,99.90
2018-09-03T20:33:54.878Z,99.90
2018-09-03T20:36:23.236Z,99.90
2018-09-03T20:38:51.374Z,99.90
2018-09-03T20:41:19.582Z,99.90
2018-09-03T20:43:47.826Z,99.90
2018-09-03T20:46:16.008Z,99.90
2018-09-03T20:48:44.178Z,99.90
2018-09-03T20:51:12.493Z,99.90
2018-09-03T20:53:40.694Z,99.90
2018-09-03T20:56:08.939Z,99.90
2018-09-03T20:58:37.140Z,99.90
2018-09-03T21:01:05.573Z,99.90
2018-09-03T21:03:33.741Z,99.90
2018-09-03T21:06:01.903Z,99.90
2018-09-03T21:08:30.121Z,99.90
2018-09-03T21:10:58.238Z,99.90
2018-09-03T21:13:26.374Z,99.90
2018-09-03T21:15:54.522Z,99.90
2018-09-03T21:18:22.713Z,99.90
2018-09-03T21:20:50.858Z,99.90
2018-09-03T21:23:18.994Z,99.90
2018-09-03T21:25:47.141Z,99.90
2018-09-03T21:28:15.282Z,99.90
2018-09-03T21:30:43.431Z,99.90
2018-09-03T21:33:11.561Z,99.90
2018-09-03T21:35:39.782Z,99.90
2018-09-03T21:38:08.962Z,99.90
2018-09-03T21:40:37.122Z,99.90
2018-09-03T21:43:05.318Z,99.90
2018-09-03T21:45:33.464Z,99.90
2018-09-03T21:48:01.619Z,99.90
2018-09-03T21:50:29.759Z,99.90
2018-09-03T21:52:57.940Z,99.90
2018-09-03T21:55:26.085Z,99.90
2018-09-03T21:57:54.227Z,99.90
2018-09-03T22:00:22.402Z,99.90
2018-09-03T22:02:50.551Z,99.90
2018-09-03T22:05:18.753Z,99.90
2018-09-03T22:07:46.853Z,99.90
2018-09-03T22:10:14.994Z,99.90
2018-09-03T22:12:43.151Z,99.90
2018-09-03T22:15:11.294Z,99.90
2018-09-03T22:17:39.443Z,99.90
2018-09-03T22:20:07.587Z,99.90
2018-09-03T22:22:35.746Z,99.90
2018-09-03T22:25:03.931Z,99.90
2018-09-03T22:27:32.123Z,99.90
2018-09-03T22:30:00.283Z,99.90
2018-09-03T22:32:28.427Z,99.90
2018-09-03T22:34:56.566Z,99.90
2018-09-03T22:37:24.723Z,99.90
2018-09-03T22:39:52.859Z,99.90
2018-09-03T22:42:24.574Z,99.90
2018-09-03T22:44:53.015Z,99.90
2018-09-03T22:47:21.182Z,99.90
2018-09-03T22:49:49.323Z,99.90
2018-09-03T22:52:17.469Z,99.90
2018-09-03T22:54:45.618Z,99.90
2018-09-03T22:57:13.758Z,99.90
2018-09-03T22:59:41.896Z,99.90
2018-09-03T23:02:10.039Z,99.90
2018-09-03T23:04:38.185Z,99.90
2018-09-03T23:07:06.339Z,99.90
2018-09-03T23:09:34.490Z,99.90
2018-09-03T23:12:02.642Z,99.90
2018-09-03T23:14:30.791Z,99.90
2018-09-03T23:16:58.934Z,99.90
2018-09-03T23:19:27.082Z,99.90
2018-09-03T23:21:55.226Z,99.90
2018-09-03T23:24:23.375Z,99.90
2018-09-03T23:26:51.511Z,99.90
2018-09-03T23:29:19.698Z,99.90
2018-09-03T23:31:47.850Z,99.90
2018-09-03T23:34:15.998Z,99.90
2018-09-03T23:36:44.146Z,99.90
2018-09-03T23:39:12.319Z,99.90
2018-09-03T23:41:40.454Z,99.90
2018-09-03T23:44:08.630Z,99.90
2018-09-03T23:46:36.770Z,99.90
2018-09-03T23:49:04.911Z,99.90
2018-09-03T23:51:33.062Z,99.90
2018-09-03T23:54:01.248Z,99.90
2018-09-03T23:56:29.459Z,99.90
2018-09-03T23:58:57.643Z,99.90
